RJKB(METAR)
10/16 17:00
RJKB 160800Z 08015KT 9999 FEW015 SCT030 27/24 Q1014 RMK A2997=
戻る
トップページへ戻る
IMOC Co,.Ltd.